Time;durP1;ratioP1;P1;durP2;ratioP2;P2;SDS_P1;SDS_P2;PMS_P1;PMS_P2;Temp;Humidity;BMP_temperature;BMP_pressure;BME280_temperature;BME280_humidity;BME280_pressure;Samples;Min_cycle;Max_cycle;Signal;HPM_P1;HPM_P2
2021/10/28 00:13:44;;;;;;;14.65;7.90;;;;;;;;;;5051304;28;20036;-88
2021/10/28 00:16:14;;;;;;;18.15;8.27;;;;;;;;;;5051227;28;20017;-88
2021/10/28 00:18:48;;;;;;;17.85;7.85;;;;;;;;;;5049852;28;20444;-88
2021/10/28 00:21:14;;;;;;;14.55;7.20;;;;;;;;;;5049862;28;20547;-88
2021/10/28 00:23:50;;;;;;;12.80;7.90;;;;;;;;;;5049969;28;20021;-88
2021/10/28 00:26:16;;;;;;;14.80;7.22;;;;;;;;;;5051095;28;20068;-88
2021/10/28 00:28:41;;;;;;;20.58;7.75;;;;;;;;;;5049638;28;20025;-88
2021/10/28 00:31:07;;;;;;;17.00;7.82;;;;;;;;;;5049718;28;20052;-88
2021/10/28 00:33:34;;;;;;;17.85;7.82;;;;;;;;;;5049641;28;20028;-88
2021/10/28 00:36:00;;;;;;;20.35;7.50;;;;;;;;;;5050873;28;20025;-88
2021/10/28 00:38:26;;;;;;;19.98;8.23;;;;;;;;;;5051049;28;20376;-88
2021/10/28 00:40:52;;;;;;;23.10;9.00;;;;;;;;;;5051613;28;20033;-88
2021/10/28 00:43:17;;;;;;;19.20;8.27;;;;;;;;;;5050722;28;20013;-88
2021/10/28 00:45:42;;;;;;;12.70;7.47;;;;;;;;;;5049476;28;20547;-88
2021/10/28 00:48:08;;;;;;;14.70;8.38;;;;;;;;;;5049306;28;20411;-88
2021/10/28 00:50:33;;;;;;;22.05;9.70;;;;;;;;;;5051520;28;20048;-88
2021/10/28 00:53:00;;;;;;;20.48;9.13;;;;;;;;;;5053032;28;20020;-88
2021/10/28 00:55:25;;;;;;;20.75;10.05;;;;;;;;;;5052510;28;20446;-88
2021/10/28 00:57:51;;;;;;;25.75;11.30;;;;;;;;;;5052096;28;20049;-88
2021/10/28 01:00:16;;;;;;;16.35;11.60;;;;;;;;;;5052159;28;20755;-88
2021/10/28 01:02:41;;;;;;;19.10;11.98;;;;;;;;;;5051430;28;20484;-88
2021/10/28 01:05:07;;;;;;;22.33;13.30;;;;;;;;;;5052593;28;20063;-88
2021/10/28 01:07:33;;;;;;;20.67;13.15;;;;;;;;;;5052359;28;20283;-88
2021/10/28 01:09:59;;;;;;;22.33;12.80;;;;;;;;;;5052242;28;20074;-88
2021/10/28 01:12:24;;;;;;;22.65;14.13;;;;;;;;;;5053647;28;20088;-88
2021/10/28 01:14:49;;;;;;;23.80;14.37;;;;;;;;;;5052950;28;20479;-88
2021/10/28 01:17:14;;;;;;;22.30;14.13;;;;;;;;;;5052738;28;20263;-88
2021/10/28 01:19:40;;;;;;;24.08;15.20;;;;;;;;;;5049626;28;20056;-88
2021/10/28 01:22:05;;;;;;;23.85;14.65;;;;;;;;;;5048406;28;20053;-87
2021/10/28 01:24:31;;;;;;;24.30;15.77;;;;;;;;;;5050339;28;20485;-88
2021/10/28 01:27:03;;;;;;;21.13;14.65;;;;;;;;;;5049095;28;20044;-88
2021/10/28 01:29:29;;;;;;;25.00;14.23;;;;;;;;;;5050194;28;20024;-88
2021/10/28 01:31:54;;;;;;;18.83;15.43;;;;;;;;;;5051005;28;20087;-87
2021/10/28 01:34:19;;;;;;;30.90;16.93;;;;;;;;;;5054117;28;20305;-88
2021/10/28 01:36:44;;;;;;;22.13;15.43;;;;;;;;;;5052524;28;20306;-88
2021/10/28 01:39:16;;;;;;;24.70;16.13;;;;;;;;;;5052572;28;20675;-88
2021/10/28 01:41:42;;;;;;;;;;;;;;;;;;5053014;28;20797;-88
2021/10/28 01:44:07;;;;;;;26.90;14.82;;;;;;;;;;5069274;28;19912;-88
2021/10/28 01:46:32;;;;;;;21.70;14.27;;;;;;;;;;5052511;28;20083;-88
2021/10/28 01:48:58;;;;;;;25.57;13.70;;;;;;;;;;5054763;28;20017;-88
2021/10/28 01:51:24;;;;;;;21.63;13.35;;;;;;;;;;5055056;28;20256;-88
2021/10/28 01:53:49;;;;;;;18.63;12.82;;;;;;;;;;5054040;28;20017;-88
2021/10/28 01:56:15;;;;;;;22.27;13.25;;;;;;;;;;5054354;28;20116;-88
2021/10/28 01:58:40;;;;;;;24.52;13.05;;;;;;;;;;5056762;28;20021;-88
2021/10/28 02:01:06;;;;;;;21.33;12.10;;;;;;;;;;5056770;28;20472;-88
2021/10/28 02:03:31;;;;;;;32.85;12.85;;;;;;;;;;5055372;28;20786;-88
2021/10/28 02:05:57;;;;;;;25.33;14.38;;;;;;;;;;5055331;28;20032;-88
2021/10/28 02:08:23;;;;;;;19.20;11.65;;;;;;;;;;5055069;28;20012;-88
2021/10/28 02:10:48;;;;;;;20.95;12.88;;;;;;;;;;5055381;28;20099;-88
2021/10/28 02:13:13;;;;;;;21.23;11.68;;;;;;;;;;5053382;28;20100;-88
2021/10/28 02:15:40;;;;;;;17.23;11.00;;;;;;;;;;5052002;28;20419;-88
2021/10/28 02:18:05;;;;;;;19.00;11.15;;;;;;;;;;5053323;28;20287;-88
2021/10/28 02:20:30;;;;;;;23.35;12.02;;;;;;;;;;5051996;28;20059;-88
2021/10/28 02:22:56;;;;;;;21.17;11.00;;;;;;;;;;5052063;28;20025;-88
2021/10/28 02:25:21;;;;;;;27.05;11.85;;;;;;;;;;5053038;28;20028;-88
2021/10/28 02:27:47;;;;;;;23.65;12.57;;;;;;;;;;5051969;28;20017;-88
2021/10/28 02:30:14;;;;;;;28.30;14.30;;;;;;;;;;5053723;28;20091;-88
2021/10/28 02:32:39;;;;;;;23.83;14.88;;;;;;;;;;5051876;28;20139;-88
2021/10/28 02:35:05;;;;;;;22.58;15.13;;;;;;;;;;5053193;28;20093;-88
2021/10/28 02:37:30;;;;;;;23.45;16.05;;;;;;;;;;5051852;28;20032;-88
2021/10/28 02:39:55;;;;;;;27.33;17.65;;;;;;;;;;5053208;28;20031;-88
2021/10/28 02:42:21;;;;;;;24.42;16.35;;;;;;;;;;5051549;28;20016;-88
2021/10/28 02:44:47;;;;;;;22.65;16.58;;;;;;;;;;5050292;28;20021;-88
2021/10/28 02:47:12;;;;;;;25.80;17.08;;;;;;;;;;5051128;28;20052;-88
2021/10/28 02:49:37;;;;;;;23.55;17.20;;;;;;;;;;5051396;28;20025;-88
2021/10/28 02:52:03;;;;;;;24.70;16.58;;;;;;;;;;5051279;28;20028;-88
2021/10/28 02:54:29;;;;;;;23.17;15.20;;;;;;;;;;5051428;28;20115;-88
2021/10/28 02:56:55;;;;;;;27.40;16.85;;;;;;;;;;5051181;28;20060;-88
2021/10/28 02:59:20;;;;;;;27.42;16.13;;;;;;;;;;5052495;28;20024;-88
2021/10/28 03:01:47;;;;;;;30.53;17.23;;;;;;;;;;5052360;28;20028;-88
2021/10/28 03:04:13;;;;;;;27.75;16.73;;;;;;;;;;5052380;28;20259;-88
2021/10/28 03:06:39;;;;;;;21.05;16.52;;;;;;;;;;5050545;28;20037;-88
2021/10/28 03:09:06;;;;;;;24.73;16.58;;;;;;;;;;5052345;28;20024;-88
2021/10/28 03:11:31;;;;;;;22.48;15.85;;;;;;;;;;5052320;28;20606;-88
2021/10/28 03:13:56;;;;;;;26.92;16.85;;;;;;;;;;5052505;28;20032;-88
2021/10/28 03:26:58;;;;;;;28.50;20.55;;;;;;;;;;5051992;28;20087;-88
2021/10/28 03:29:23;;;;;;;26.95;21.00;;;;;;;;;;5051956;28;20056;-88
2021/10/28 03:31:48;;;;;;;32.78;23.08;;;;;;;;;;5050884;28;20024;-89
2021/10/28 03:34:14;;;;;;;31.80;22.23;;;;;;;;;;5051687;28;20025;-88
2021/10/28 03:36:48;;;;;;;29.23;24.27;;;;;;;;;;5051648;28;20143;-88
2021/10/28 03:45:22;;;;;;;31.63;23.33;;;;;;;;;;5051885;28;20139;-88
2021/10/28 04:03:57;;;;;;;34.35;24.33;;;;;;;;;;5051568;28;20267;-88
2021/10/28 04:29:52;;;;;;;42.22;31.17;;;;;;;;;;5050432;28;20129;-88
2021/10/28 04:32:17;;;;;;;46.67;32.90;;;;;;;;;;5049318;28;20904;-88
2021/10/28 04:34:44;;;;;;;40.42;30.85;;;;;;;;;;5049477;28;20274;-88
2021/10/28 04:37:09;;;;;;;46.72;33.42;;;;;;;;;;5050819;28;20013;-88
2021/10/28 04:39:35;;;;;;;43.55;32.63;;;;;;;;;;5049272;28;20028;-87
2021/10/28 04:42:00;;;;;;;43.08;32.67;;;;;;;;;;5050694;28;20060;-88
2021/10/28 04:44:25;;;;;;;45.17;32.20;;;;;;;;;;5050801;28;20138;-88
2021/10/28 04:46:50;;;;;;;39.90;32.73;;;;;;;;;;5048941;28;20310;-88
2021/10/28 04:49:16;;;;;;;42.90;33.67;;;;;;;;;;5047110;28;20318;-88
2021/10/28 04:51:42;;;;;;;46.78;34.03;;;;;;;;;;5048946;28;20029;-89
2021/10/28 04:54:10;;;;;;;41.00;33.17;;;;;;;;;;5049189;28;20432;-88
2021/10/28 04:56:36;;;;;;;45.17;33.65;;;;;;;;;;5038623;28;20060;-88
2021/10/28 04:59:01;;;;;;;40.15;31.70;;;;;;;;;;5048841;28;20431;-88
2021/10/28 05:01:27;;;;;;;39.55;31.30;;;;;;;;;;5049989;28;20853;-88
2021/10/28 05:03:53;;;;;;;48.55;32.30;;;;;;;;;;5048890;28;20496;-88
2021/10/28 05:06:18;;;;;;;39.47;30.73;;;;;;;;;;5048737;28;20044;-88
2021/10/28 05:08:44;;;;;;;39.13;28.98;;;;;;;;;;5054152;28;20017;-88
2021/10/28 05:11:10;;;;;;;36.90;28.17;;;;;;;;;;5052415;28;20049;-88
2021/10/28 05:13:36;;;;;;;35.97;28.50;;;;;;;;;;5053430;28;20106;-88
2021/10/28 05:16:02;;;;;;;37.63;28.98;;;;;;;;;;5052699;28;20061;-88
2021/10/28 05:18:27;;;;;;;37.40;28.60;;;;;;;;;;5054489;28;20024;-88
2021/10/28 05:20:54;;;;;;;39.53;29.33;;;;;;;;;;5054070;28;20115;-88
2021/10/28 05:23:21;;;;;;;38.20;29.58;;;;;;;;;;5052706;28;20271;-88
2021/10/28 05:25:48;;;;;;;35.65;27.90;;;;;;;;;;5051722;28;20098;-88
2021/10/28 05:28:18;;;;;;;38.83;28.52;;;;;;;;;;5052948;28;20116;-88
2021/10/28 05:30:45;;;;;;;43.50;28.83;;;;;;;;;;5038658;28;20021;-88
2021/10/28 05:33:10;;;;;;;43.87;29.70;;;;;;;;;;5033317;28;20029;-88
2021/10/28 05:35:36;;;;;;;43.58;28.98;;;;;;;;;;5033434;28;20276;-88
2021/10/28 05:38:01;;;;;;;41.65;30.27;;;;;;;;;;5032668;28;20362;-88
2021/10/28 05:40:26;;;;;;;43.00;30.00;;;;;;;;;;5032121;28;20393;-88
2021/10/28 05:42:52;;;;;;;46.00;31.08;;;;;;;;;;5032560;28;20848;-88
2021/10/28 05:45:19;;;;;;;39.20;30.27;;;;;;;;;;5032684;28;20128;-88
2021/10/28 05:47:44;;;;;;;45.53;31.10;;;;;;;;;;5033555;28;20029;-88
2021/10/28 05:50:17;;;;;;;42.10;30.95;;;;;;;;;;5033465;28;20021;-88
2021/10/28 05:52:43;;;;;;;47.20;31.67;;;;;;;;;;5034114;28;20488;-88
2021/10/28 05:55:11;;;;;;;46.15;33.00;;;;;;;;;;5033303;28;20026;-88
2021/10/28 05:57:37;;;;;;;41.75;31.88;;;;;;;;;;5030553;28;20089;-88
2021/10/28 06:00:03;;;;;;;42.95;31.65;;;;;;;;;;5031959;28;20049;-88
2021/10/28 06:02:29;;;;;;;42.35;32.08;;;;;;;;;;5031771;28;20021;-88
2021/10/28 06:04:54;;;;;;;44.20;30.90;;;;;;;;;;5033644;28;20045;-88
2021/10/28 06:07:19;;;;;;;48.17;31.30;;;;;;;;;;5031777;28;20710;-88
2021/10/28 06:09:44;;;;;;;38.63;30.42;;;;;;;;;;5032179;28;20112;-88
2021/10/28 06:12:10;;;;;;;44.77;30.90;;;;;;;;;;5031771;28;20117;-89
2021/10/28 06:14:36;;;;;;;45.15;31.00;;;;;;;;;;5032244;28;20762;-88
2021/10/28 06:17:09;;;;;;;41.25;30.50;;;;;;;;;;5032035;28;20024;-89
2021/10/28 06:19:35;;;;;;;44.72;29.45;;;;;;;;;;5031684;28;20060;-89
2021/10/28 06:22:01;;;;;;;36.67;28.85;;;;;;;;;;5031872;28;20049;-88
2021/10/28 06:24:26;;;;;;;37.10;28.10;;;;;;;;;;5031700;28;20017;-88
2021/10/28 06:26:52;;;;;;;36.85;26.02;;;;;;;;;;5032436;28;20370;-88
2021/10/28 06:29:18;;;;;;;34.95;27.55;;;;;;;;;;5033003;28;20313;-88
2021/10/28 06:31:46;;;;;;;36.35;28.60;;;;;;;;;;5030998;28;20031;-88
2021/10/28 06:34:18;;;;;;;39.70;27.42;;;;;;;;;;5029488;28;20028;-89
2021/10/28 06:36:45;;;;;;;35.75;26.33;;;;;;;;;;5030945;28;20112;-88
2021/10/28 06:39:11;;;;;;;33.63;25.60;;;;;;;;;;5030303;28;20028;-88
2021/10/28 06:41:36;;;;;;;32.85;25.77;;;;;;;;;;5031633;28;20021;-88
2021/10/28 06:44:02;;;;;;;32.07;24.83;;;;;;;;;;5031475;28;20048;-88
2021/10/28 06:46:27;;;;;;;32.05;25.75;;;;;;;;;;5031329;28;20308;-88
2021/10/28 06:48:53;;;;;;;34.22;26.08;;;;;;;;;;5031248;28;20029;-88
2021/10/28 06:51:19;;;;;;;35.00;27.42;;;;;;;;;;5031208;28;20022;-88
2021/10/28 06:53:55;;;;;;;35.90;27.70;;;;;;;;;;5030734;28;20025;-88
2021/10/28 06:56:55;;;;;;;35.58;26.23;;;;;;;;;;5030589;28;20041;-88
2021/10/28 07:04:36;;;;;;;36.55;27.15;;;;;;;;;;5032569;28;20091;-87
2021/10/28 07:07:01;;;;;;;37.50;29.23;;;;;;;;;;5030919;28;20029;-88
2021/10/28 07:09:32;;;;;;;37.35;27.13;;;;;;;;;;5030798;28;21148;-88
2021/10/28 07:12:45;;;;;;;35.38;27.25;;;;;;;;;;5032361;28;20051;-88
2021/10/28 07:14:50;;;;;;;37.58;26.83;;;;;;;;;;5023836;28;20044;-88
2021/10/28 07:17:26;;;;;;;31.75;26.67;;;;;;;;;;5030644;28;20029;-88
2021/10/28 07:24:58;;;;;;;42.25;29.42;;;;;;;;;;5032320;28;20099;-89
2021/10/28 08:18:58;;;;;;;48.08;33.38;;;;;;;;;;5051492;28;20040;-88
2021/10/28 08:24:16;;;;;;;45.10;31.52;;;;;;;;;;5033852;28;20040;-88
2021/10/28 08:29:29;;;;;;;43.25;31.55;;;;;;;;;;5051022;28;20047;-88
2021/10/28 08:31:55;;;;;;;44.20;31.85;;;;;;;;;;5050107;28;20086;-88
2021/10/28 08:34:26;;;;;;;42.38;32.42;;;;;;;;;;5049232;28;20017;-88
2021/10/28 08:36:52;;;;;;;43.38;33.58;;;;;;;;;;5049225;28;20451;-88
2021/10/28 08:39:20;;;;;;;48.67;35.50;;;;;;;;;;5049169;28;20481;-88
2021/10/28 08:41:46;;;;;;;48.30;36.45;;;;;;;;;;5049359;28;20028;-88
2021/10/28 08:44:13;;;;;;;44.95;36.22;;;;;;;;;;5050824;28;20534;-87
2021/10/28 08:46:41;;;;;;;53.55;39.95;;;;;;;;;;5050599;28;20485;-88
2021/10/28 08:49:15;;;;;;;49.03;37.35;;;;;;;;;;5050715;28;20017;-88
2021/10/28 08:52:06;;;;;;;53.17;39.90;;;;;;;;;;5047960;28;20527;-88
2021/10/28 08:57:51;;;;;;;49.47;38.13;;;;;;;;;;5030506;28;20084;-88
2021/10/28 09:25:41;;;;;;;34.75;25.15;;;;;;;;;;5049165;28;20056;-89
2021/10/28 09:28:45;;;;;;;40.13;26.67;;;;;;;;;;5051334;28;20025;-88
2021/10/28 09:31:17;;;;;;;38.25;25.25;;;;;;;;;;5007297;28;20018;-88
2021/10/28 09:45:29;;;;;;;30.60;21.85;;;;;;;;;;5050359;28;20023;-88
2021/10/28 09:47:36;;;;;;;30.42;21.45;;;;;;;;;;5045795;28;20044;-88
2021/10/28 09:52:46;;;;;;;28.55;21.40;;;;;;;;;;5049627;28;20032;-88
2021/10/28 09:58:06;;;;;;;28.30;20.20;;;;;;;;;;5052426;28;20091;-88
2021/10/28 10:00:39;;;;;;;26.42;19.45;;;;;;;;;;5038734;28;20067;-88
2021/10/28 10:03:15;;;;;;;24.30;18.15;;;;;;;;;;5052113;28;20078;-89
2021/10/28 10:05:41;;;;;;;29.15;19.52;;;;;;;;;;5052767;28;20443;-89
2021/10/28 10:08:07;;;;;;;28.25;18.88;;;;;;;;;;5053629;28;20053;-88
2021/10/28 10:10:33;;;;;;;30.60;19.58;;;;;;;;;;5052111;28;20112;-89
2021/10/28 10:12:58;;;;;;;27.10;19.35;;;;;;;;;;5052926;28;20815;-89
2021/10/28 10:15:24;;;;;;;26.42;17.42;;;;;;;;;;5053896;28;20028;-88
2021/10/28 10:17:51;;;;;;;26.88;17.30;;;;;;;;;;5051555;28;20415;-89
2021/10/28 10:20:19;;;;;;;30.42;16.63;;;;;;;;;;5052129;28;20489;-88
2021/10/28 10:22:53;;;;;;;24.15;17.95;;;;;;;;;;5052232;28;20025;-89
2021/10/28 10:25:53;;;;;;;26.60;16.10;;;;;;;;;;5051605;28;20095;-89
2021/10/28 11:15:30;;;;;;;18.13;12.18;;;;;;;;;;5051229;28;20120;-88
2021/10/28 11:28:56;;;;;;;15.35;9.80;;;;;;;;;;5052038;28;20100;-88
2021/10/28 11:31:36;;;;;;;15.23;10.10;;;;;;;;;;5055337;28;20538;-88
2021/10/28 12:16:56;;;;;;;10.10;6.88;;;;;;;;;;5055120;28;20087;-88
2021/10/28 12:22:53;;;;;;;9.75;6.43;;;;;;;;;;5050996;28;20435;-88
2021/10/28 12:45:18;;;;;;;9.23;6.45;;;;;;;;;;5009796;28;20056;-88
2021/10/28 13:28:29;;;;;;;11.95;6.00;;;;;;;;;;4990723;28;20089;-88
2021/10/28 13:52:46;;;;;;;9.65;6.15;;;;;;;;;;5011377;22;20022;-87
2021/10/28 14:28:05;;;;;;;6.47;4.70;;;;;;;;;;5053046;28;20082;-88
2021/10/28 14:38:27;;;;;;;10.98;5.38;;;;;;;;;;5053223;28;20029;-87
2021/10/28 15:35:31;;;;;;;9.23;6.07;;;;;;;;;;5072273;28;20079;-88
2021/10/28 16:23:45;;;;;;;15.32;6.93;;;;;;;;;;5033077;28;20107;-88
2021/10/28 16:26:11;;;;;;;9.32;6.97;;;;;;;;;;5015108;28;20167;-88
2021/10/28 16:28:36;;;;;;;11.82;6.82;;;;;;;;;;5032571;23;20059;-89
2021/10/28 16:31:08;;;;;;;10.38;6.72;;;;;;;;;;5035865;28;20048;-88
2021/10/28 16:33:39;;;;;;;11.40;6.97;;;;;;;;;;5030311;28;20124;-88
2021/10/28 16:36:04;;;;;;;8.15;6.63;;;;;;;;;;5034701;28;20013;-88
2021/10/28 16:38:30;;;;;;;12.37;6.90;;;;;;;;;;5035951;28;20021;-88
2021/10/28 16:40:55;;;;;;;13.18;7.05;;;;;;;;;;5035718;28;20290;-88
2021/10/28 16:43:20;;;;;;;10.30;6.80;;;;;;;;;;5053967;28;20048;-88
2021/10/28 16:45:46;;;;;;;9.55;6.75;;;;;;;;;;5016331;28;20075;-88
2021/10/28 16:48:12;;;;;;;11.20;7.15;;;;;;;;;;5014148;28;20021;-88
2021/10/28 16:50:38;;;;;;;16.35;7.05;;;;;;;;;;5016066;28;20478;-88
2021/10/28 16:53:04;;;;;;;10.32;6.75;;;;;;;;;;5029094;28;20021;-88
2021/10/28 16:55:30;;;;;;;11.70;7.50;;;;;;;;;;5034445;28;20013;-88
2021/10/28 16:57:55;;;;;;;11.02;7.45;;;;;;;;;;5036568;28;20063;-88
2021/10/28 17:00:21;;;;;;;9.93;7.05;;;;;;;;;;5035457;28;20024;-88
2021/10/28 17:02:47;;;;;;;9.55;7.55;;;;;;;;;;5034517;28;20074;-88
2021/10/28 17:05:14;;;;;;;9.05;7.68;;;;;;;;;;5053447;28;20108;-88
2021/10/28 17:07:39;;;;;;;12.65;7.97;;;;;;;;;;5034103;28;20116;-87
2021/10/28 17:10:05;;;;;;;11.20;7.95;;;;;;;;;;5015621;28;20156;-88
2021/10/28 17:12:30;;;;;;;10.88;8.07;;;;;;;;;;5013629;28;20040;-88
2021/10/28 17:14:56;;;;;;;11.00;8.93;;;;;;;;;;5026965;28;20810;-88
2021/10/28 17:17:21;;;;;;;14.23;8.77;;;;;;;;;;5027728;28;20381;-88
2021/10/28 17:19:48;;;;;;;9.95;8.15;;;;;;;;;;5014354;28;20485;-88
2021/10/28 17:22:14;;;;;;;11.50;7.82;;;;;;;;;;5030140;28;20052;-88
2021/10/28 17:24:45;;;;;;;14.07;8.18;;;;;;;;;;5034643;28;20056;-88
2021/10/28 17:27:10;;;;;;;15.02;9.35;;;;;;;;;;5038378;28;20029;-88
2021/10/28 17:29:37;;;;;;;13.65;9.02;;;;;;;;;;5033227;28;20436;-88
2021/10/28 17:32:03;;;;;;;12.57;9.35;;;;;;;;;;5015058;28;20429;-88
2021/10/28 17:34:35;;;;;;;12.45;8.55;;;;;;;;;;5015823;28;20109;-88
2021/10/28 17:37:11;;;;;;;11.90;8.35;;;;;;;;;;5011071;28;20105;-88
2021/10/28 17:39:37;;;;;;;12.38;8.85;;;;;;;;;;5019843;28;20105;-87
2021/10/28 17:42:03;;;;;;;12.95;9.13;;;;;;;;;;5014664;28;20059;-88
2021/10/28 17:46:59;;;;;;;12.48;8.75;;;;;;;;;;5035852;23;20089;-88
2021/10/28 17:49:25;;;;;;;12.90;8.65;;;;;;;;;;5031371;28;20041;-89
2021/10/28 17:51:53;;;;;;;11.93;9.68;;;;;;;;;;5013840;28;20117;-88
2021/10/28 17:54:19;;;;;;;13.50;10.45;;;;;;;;;;5013830;28;20819;-88
2021/10/28 17:56:44;;;;;;;13.07;9.95;;;;;;;;;;5013808;28;20037;-89
2021/10/28 17:59:12;;;;;;;15.85;9.30;;;;;;;;;;5002671;28;20017;-89
2021/10/28 18:01:45;;;;;;;12.18;9.75;;;;;;;;;;5027448;28;20014;-89
2021/10/28 18:09:23;;;;;;;16.58;11.60;;;;;;;;;;4968911;28;20054;-89
2021/10/28 18:11:52;;;;;;;14.73;11.93;;;;;;;;;;4967497;28;20462;-89
2021/10/28 18:14:23;;;;;;;17.88;11.77;;;;;;;;;;4966922;28;20105;-88
2021/10/28 18:16:49;;;;;;;16.27;10.43;;;;;;;;;;4978004;28;20019;-88
2021/10/28 18:19:14;;;;;;;17.20;11.18;;;;;;;;;;4979370;28;20077;-88
2021/10/28 18:21:45;;;;;;;14.63;10.18;;;;;;;;;;4977971;28;20022;-88
2021/10/28 18:24:11;;;;;;;14.87;10.60;;;;;;;;;;4978229;28;20359;-88
2021/10/28 18:26:46;;;;;;;13.55;10.48;;;;;;;;;;5029685;23;20052;-88
2021/10/28 18:29:23;;;;;;;15.60;11.75;;;;;;;;;;5017959;28;20076;-88
2021/10/28 18:31:49;;;;;;;12.32;10.40;;;;;;;;;;5027279;28;20461;-88
2021/10/28 18:34:15;;;;;;;17.63;10.27;;;;;;;;;;5035311;28;20035;-88
2021/10/28 18:36:40;;;;;;;19.70;9.77;;;;;;;;;;5037251;28;20021;-88
2021/10/28 18:39:08;;;;;;;15.23;10.32;;;;;;;;;;5018461;28;20026;-88
2021/10/28 18:41:35;;;;;;;15.27;10.07;;;;;;;;;;5017589;28;20071;-89
2021/10/28 18:44:02;;;;;;;12.40;10.35;;;;;;;;;;5023651;28;20076;-88
2021/10/28 18:49:01;;;;;;;20.70;10.25;;;;;;;;;;5065735;22;20052;-88
2021/10/28 18:51:26;;;;;;;15.88;10.63;;;;;;;;;;5036400;28;20322;-88
2021/10/28 18:53:52;;;;;;;10.82;9.45;;;;;;;;;;5037514;28;20030;-88
2021/10/28 18:56:18;;;;;;;16.27;10.45;;;;;;;;;;5051553;23;20056;-88
2021/10/28 18:58:44;;;;;;;15.93;10.23;;;;;;;;;;5037949;28;20591;-88
2021/10/28 19:01:11;;;;;;;15.15;10.18;;;;;;;;;;5037941;28;20041;-88
2021/10/28 19:03:38;;;;;;;11.90;9.10;;;;;;;;;;5038211;28;20108;-88
2021/10/28 19:06:03;;;;;;;12.43;10.80;;;;;;;;;;5055428;28;20041;-87
2021/10/28 19:08:28;;;;;;;13.65;11.10;;;;;;;;;;5037511;28;20067;-87
2021/10/28 19:10:54;;;;;;;14.00;9.75;;;;;;;;;;5037369;28;20021;-87
2021/10/28 19:13:19;;;;;;;11.18;9.98;;;;;;;;;;5037400;28;20017;-88
2021/10/28 19:15:44;;;;;;;10.73;9.53;;;;;;;;;;5055426;28;20661;-88
2021/10/28 19:18:09;;;;;;;11.15;9.30;;;;;;;;;;5037563;28;20277;-88
2021/10/28 19:20:35;;;;;;;14.23;10.27;;;;;;;;;;5055573;28;20024;-88
2021/10/28 19:23:01;;;;;;;16.30;11.20;;;;;;;;;;5055248;28;20025;-88
2021/10/28 19:25:26;;;;;;;12.20;9.45;;;;;;;;;;5036650;28;20017;-88
2021/10/28 19:27:55;;;;;;;15.07;9.50;;;;;;;;;;5037477;28;20048;-88
2021/10/28 19:32:45;;;;;;;13.85;10.00;;;;;;;;;;5055514;28;20472;-89
2021/10/28 19:35:11;;;;;;;15.80;9.50;;;;;;;;;;5055142;28;20020;-89
2021/10/28 19:37:42;;;;;;;12.93;9.80;;;;;;;;;;5055187;28;20025;-89
2021/10/28 19:48:13;;;;;;;13.18;9.32;;;;;;;;;;5055329;28;20121;-88
2021/10/28 19:50:38;;;;;;;17.48;10.05;;;;;;;;;;5055067;28;20083;-88
2021/10/28 19:53:03;;;;;;;9.10;8.18;;;;;;;;;;5036928;28;20013;-88
2021/10/28 19:55:29;;;;;;;9.40;8.27;;;;;;;;;;5036425;28;20021;-88
2021/10/28 19:57:55;;;;;;;10.82;8.85;;;;;;;;;;5054563;28;20032;-88
2021/10/28 20:00:34;;;;;;;10.82;8.52;;;;;;;;;;5036890;28;20029;-88
2021/10/28 20:05:31;;;;;;;15.43;8.50;;;;;;;;;;5054836;28;20020;-88
2021/10/28 20:21:02;;;;;;;12.73;8.45;;;;;;;;;;5055211;28;20036;-88
2021/10/28 20:23:27;;;;;;;10.00;7.97;;;;;;;;;;5054191;28;20021;-88
2021/10/28 20:25:52;;;;;;;10.93;8.15;;;;;;;;;;5053989;28;20037;-88
2021/10/28 20:28:18;;;;;;;11.05;8.07;;;;;;;;;;5054245;28;20009;-88
2021/10/28 20:30:58;;;;;;;12.80;8.85;;;;;;;;;;5054128;28;20013;-88
2021/10/28 20:33:25;;;;;;;10.27;8.57;;;;;;;;;;5036052;28;20476;-88
2021/10/28 20:38:19;;;;;;;12.50;8.50;;;;;;;;;;5054221;28;20105;-88
2021/10/28 20:40:45;;;;;;;12.52;8.48;;;;;;;;;;5036182;28;20440;-88
2021/10/28 20:43:10;;;;;;;10.90;8.40;;;;;;;;;;5036178;28;20071;-88
2021/10/28 20:45:37;;;;;;;9.60;7.80;;;;;;;;;;5037157;28;20730;-89
2021/10/28 20:48:02;;;;;;;9.77;8.15;;;;;;;;;;5035782;28;20024;-88
2021/10/28 20:50:28;;;;;;;10.50;7.63;;;;;;;;;;5035962;28;20465;-88
2021/10/28 20:52:53;;;;;;;10.05;7.15;;;;;;;;;;5035755;28;20097;-89
2021/10/28 20:55:19;;;;;;;8.25;7.15;;;;;;;;;;5053155;28;20017;-88
2021/10/28 20:57:45;;;;;;;8.35;7.40;;;;;;;;;;5053572;28;20449;-88
2021/10/28 21:00:12;;;;;;;7.82;7.03;;;;;;;;;;5035641;28;20047;-88
2021/10/28 21:02:38;;;;;;;9.80;7.65;;;;;;;;;;5053494;28;20021;-88
2021/10/28 21:05:11;;;;;;;9.38;6.90;;;;;;;;;;5035672;28;20518;-89
2021/10/28 21:07:37;;;;;;;10.23;6.53;;;;;;;;;;5035519;28;20480;-89
2021/10/28 21:10:03;;;;;;;12.27;7.68;;;;;;;;;;5053611;28;20024;-89
2021/10/28 21:12:28;;;;;;;10.35;6.95;;;;;;;;;;5053703;28;20100;-88
2021/10/28 21:14:53;;;;;;;10.07;7.90;;;;;;;;;;5039545;28;20025;-88
2021/10/28 21:17:18;;;;;;;9.90;7.40;;;;;;;;;;5035675;28;20858;-88
2021/10/28 21:19:44;;;;;;;10.10;7.30;;;;;;;;;;5035596;28;20111;-88
2021/10/28 21:22:09;;;;;;;9.00;7.13;;;;;;;;;;5053605;28;20009;-88
2021/10/28 21:24:38;;;;;;;9.40;7.70;;;;;;;;;;5051891;28;20256;-88
2021/10/28 21:27:03;;;;;;;13.15;8.10;;;;;;;;;;5050258;28;20500;-88
2021/10/28 21:29:29;;;;;;;8.48;7.32;;;;;;;;;;5050362;28;20065;-88
2021/10/28 21:31:54;;;;;;;9.10;7.40;;;;;;;;;;5050383;28;20020;-88
2021/10/28 21:34:20;;;;;;;9.95;7.68;;;;;;;;;;5032456;28;20267;-88
2021/10/28 21:36:45;;;;;;;9.63;6.97;;;;;;;;;;5032334;28;20108;-88
2021/10/28 21:39:10;;;;;;;9.38;8.00;;;;;;;;;;5036008;28;20050;-88
2021/10/28 21:41:35;;;;;;;10.70;7.47;;;;;;;;;;5050550;28;20483;-88
2021/10/28 21:44:01;;;;;;;11.32;7.60;;;;;;;;;;5050269;28;20028;-88
2021/10/28 21:46:30;;;;;;;9.73;8.07;;;;;;;;;;5050137;28;20446;-88
2021/10/28 21:48:57;;;;;;;8.40;7.57;;;;;;;;;;5032545;28;20032;-88
2021/10/28 21:51:23;;;;;;;10.13;8.55;;;;;;;;;;5054052;28;20151;-88
2021/10/28 21:53:51;;;;;;;11.35;7.88;;;;;;;;;;5054022;28;20098;-89
2021/10/28 22:01:38;;;;;;;13.18;8.65;;;;;;;;;;5054297;28;20031;-88
2021/10/28 22:25:41;;;;;;;11.50;9.63;;;;;;;;;;5053407;28;20083;-88
2021/10/28 22:28:07;;;;;;;11.80;8.40;;;;;;;;;;5036131;28;20025;-88
2021/10/28 22:30:32;;;;;;;11.50;8.98;;;;;;;;;;5036878;28;20472;-88
2021/10/28 22:32:58;;;;;;;14.40;10.05;;;;;;;;;;5039287;28;20128;-88
2021/10/28 22:35:31;;;;;;;12.07;10.30;;;;;;;;;;5053301;28;20013;-88
2021/10/28 22:38:03;;;;;;;15.13;9.75;;;;;;;;;;5035356;28;20025;-88
2021/10/28 22:42:57;;;;;;;10.70;9.60;;;;;;;;;;5052924;28;20029;-88
2021/10/28 22:45:22;;;;;;;14.80;9.75;;;;;;;;;;5053261;28;20428;-89
2021/10/28 22:47:47;;;;;;;12.82;9.95;;;;;;;;;;5035281;28;20917;-88
2021/10/28 22:50:13;;;;;;;14.67;11.03;;;;;;;;;;5035386;28;20078;-89
2021/10/28 22:52:40;;;;;;;12.35;10.30;;;;;;;;;;5035256;28;20263;-89
2021/10/28 22:59:57;;;;;;;16.08;11.45;;;;;;;;;;5053133;28;20021;-88
2021/10/28 23:02:37;;;;;;;20.17;12.07;;;;;;;;;;5034738;28;20111;-89
2021/10/28 23:10:25;;;;;;;16.13;11.00;;;;;;;;;;5052909;28;20527;-88
2021/10/28 23:15:56;;;;;;;15.63;11.02;;;;;;;;;;5052521;28;20743;-88
2021/10/28 23:21:06;;;;;;;14.27;10.93;;;;;;;;;;5052402;28;20036;-89
2021/10/28 23:23:31;;;;;;;20.73;13.10;;;;;;;;;;5034382;28;20029;-89
2021/10/28 23:25:56;;;;;;;17.10;12.75;;;;;;;;;;5034311;28;20063;-89
2021/10/28 23:28:21;;;;;;;18.92;12.02;;;;;;;;;;5048351;28;20087;-88
2021/10/28 23:30:47;;;;;;;13.90;11.83;;;;;;;;;;5052221;28;20059;-88
2021/10/28 23:33:12;;;;;;;16.98;12.63;;;;;;;;;;5052545;28;20619;-88
2021/10/28 23:35:37;;;;;;;18.98;12.27;;;;;;;;;;5052445;28;20056;-88
2021/10/28 23:38:03;;;;;;;19.67;12.80;;;;;;;;;;5034271;28;20393;-89
2021/10/28 23:40:28;;;;;;;17.10;12.18;;;;;;;;;;5034066;28;20263;-88
2021/10/28 23:42:54;;;;;;;15.98;13.00;;;;;;;;;;5033861;28;20050;-88
2021/10/28 23:45:19;;;;;;;15.85;12.93;;;;;;;;;;5034148;28;20029;-88
2021/10/28 23:47:44;;;;;;;16.73;12.38;;;;;;;;;;5034044;28;20035;-88
2021/10/28 23:50:10;;;;;;;17.65;13.35;;;;;;;;;;5034121;28;20071;-88
2021/10/28 23:52:35;;;;;;;16.42;12.75;;;;;;;;;;5033928;28;20481;-88
2021/10/28 23:55:02;;;;;;;16.85;13.73;;;;;;;;;;5056859;28;20075;-88
2021/10/28 23:57:27;;;;;;;16.90;13.88;;;;;;;;;;5051680;28;20059;-88
2021/10/28 23:59:52;;;;;;;18.00;13.18;;;;;;;;;;5051667;28;20104;-88
